Time;durP1;ratioP1;P1;durP2;ratioP2;P2;SDS_P1;SDS_P2;PMS_P1;PMS_P2;Temp;Humidity;BMP_temperature;BMP_pressure;BME280_temperature;BME280_humidity;BME280_pressure;Samples;Min_cycle;Max_cycle;Signal;HPM_P1;HPM_P2
2022/10/16 00:00:07;;;;;;;0;0;;;;;;;0;0;0;;;;
2022/10/16 00:01:10;;;;;;;0;0;;;;;;;0;0;0;;;;
2022/10/16 00:02:14;;;;;;;0;0;;;;;;;0;0;0;;;;
2022/10/16 00:03:15;;;;;;;0;0;;;;;;;0;0;0;;;;
2022/10/16 00:04:15;;;;;;;0;0;;;;;;;0;0;0;;;;
2022/10/16 00:05:16;;;;;;;0;0;;;;;;;0;0;0;;;;
2022/10/16 00:06:16;;;;;;;0;0;;;;;;;0;0;0;;;;
2022/10/16 00:07:19;;;;;;;0;0;;;;;;;0;0;0;;;;
2022/10/16 00:08:19;;;;;;;0;0;;;;;;;0;0;0;;;;
2022/10/16 00:09:20;;;;;;;0;0;;;;;;;0;0;0;;;;
2022/10/16 00:10:20;;;;;;;0;0;;;;;;;0;0;0;;;;
2022/10/16 08:33:47;;;;;;;0;0;;;;;;;0;0;0;;;;
2022/10/16 08:34:48;;;;;;;0;0;;;;;;;0;0;0;;;;
2022/10/16 08:35:48;;;;;;;0;0;;;;;;;0;0;0;;;;
2022/10/16 08:36:51;;;;;;;0;0;;;;;;;0;0;0;;;;
2022/10/16 08:37:53;;;;;;;0;0;;;;;;;0;0;0;;;;
2022/10/16 08:38:54;;;;;;;0;0;;;;;;;0;0;0;;;;
2022/10/16 08:39:54;;;;;;;0;0;;;;;;;0;0;0;;;;
2022/10/16 08:40:55;;;;;;;0;0;;;;;;;0;0;0;;;;
2022/10/16 08:42:11;;;;;;;0;0;;;;;;;0;0;0;;;;
2022/10/16 08:43:23;;;;;;;0;0;;;;;;;0;0;0;;;;
2022/10/16 08:44:40;;;;;;;0;0;;;;;;;0;0;0;;;;
2022/10/16 08:46:00;;;;;;;0;0;;;;;;;0;0;0;;;;
2022/10/16 08:47:15;;;;;;;0;0;;;;;;;0;0;0;;;;
2022/10/16 08:48:22;;;;;;;0;0;;;;;;;0;0;0;;;;
2022/10/16 08:49:31;;;;;;;0;0;;;;;;;0;0;0;;;;
2022/10/16 08:50:31;;;;;;;0;0;;;;;;;0;0;0;;;;
2022/10/16 08:51:37;;;;;;;0;0;;;;;;;0;0;0;;;;
2022/10/16 08:52:38;;;;;;;0;0;;;;;;;0;0;0;;;;
2022/10/16 08:53:43;;;;;;;0;0;;;;;;;0;0;0;;;;
2022/10/16 08:54:51;;;;;;;0;0;;;;;;;0;0;0;;;;
2022/10/16 08:55:55;;;;;;;0;0;;;;;;;0;0;0;;;;
2022/10/16 08:56:56;;;;;;;0;0;;;;;;;0;0;0;;;;
2022/10/16 08:57:58;;;;;;;0;0;;;;;;;0;0;0;;;;
2022/10/16 08:58:59;;;;;;;0;0;;;;;;;0;0;0;;;;
2022/10/16 09:00:00;;;;;;;0;0;;;;;;;0;0;0;;;;
2022/10/16 09:01:12;;;;;;;0;0;;;;;;;0;0;0;;;;
2022/10/16 09:02:15;;;;;;;0;0;;;;;;;0;0;0;;;;
2022/10/16 09:03:25;;;;;;;0;0;;;;;;;0;0;0;;;;
2022/10/16 09:04:40;;;;;;;0;0;;;;;;;0;0;0;;;;
2022/10/16 09:05:54;;;;;;;0;0;;;;;;;0;0;0;;;;
2022/10/16 09:07:06;;;;;;;0;0;;;;;;;0;0;0;;;;
2022/10/16 09:08:13;;;;;;;0;0;;;;;;;0;0;0;;;;
2022/10/16 09:09:24;;;;;;;0;0;;;;;;;0;0;0;;;;
2022/10/16 09:10:40;;;;;;;0;0;;;;;;;0;0;0;;;;
2022/10/16 09:11:50;;;;;;;0;0;;;;;;;0;0;0;;;;
2022/10/16 09:12:57;;;;;;;0;0;;;;;;;0;0;0;;;;
2022/10/16 09:14:08;;;;;;;0;0;;;;;;;0;0;0;;;;
2022/10/16 09:15:28;;;;;;;0;0;;;;;;;0;0;0;;;;
2022/10/16 09:16:34;;;;;;;0;0;;;;;;;0;0;0;;;;
2022/10/16 09:17:42;;;;;;;0;0;;;;;;;0;0;0;;;;
2022/10/16 09:18:52;;;;;;;0;0;;;;;;;0;0;0;;;;
2022/10/16 09:20:01;;;;;;;0;0;;;;;;;0;0;0;;;;
2022/10/16 09:21:18;;;;;;;0;0;;;;;;;0;0;0;;;;
2022/10/16 09:22:23;;;;;;;0;0;;;;;;;0;0;0;;;;
2022/10/16 09:23:27;;;;;;;0;0;;;;;;;0;0;0;;;;
2022/10/16 09:24:29;;;;;;;0;0;;;;;;;0;0;0;;;;
2022/10/16 09:25:29;;;;;;;0;0;;;;;;;0;0;0;;;;
2022/10/16 09:26:32;;;;;;;0;0;;;;;;;0;0;0;;;;
2022/10/16 09:27:33;;;;;;;0;0;;;;;;;0;0;0;;;;
2022/10/16 09:28:33;;;;;;;0;0;;;;;;;0;0;0;;;;
2022/10/16 09:29:34;;;;;;;0;0;;;;;;;0;0;0;;;;
2022/10/16 09:30:34;;;;;;;0;0;;;;;;;0;0;0;;;;
2022/10/16 09:31:35;;;;;;;0;0;;;;;;;0;0;0;;;;
2022/10/16 09:32:36;;;;;;;0;0;;;;;;;0;0;0;;;;
2022/10/16 09:33:38;;;;;;;0;0;;;;;;;0;0;0;;;;
2022/10/16 09:34:41;;;;;;;0;0;;;;;;;0;0;0;;;;
2022/10/16 09:35:45;;;;;;;0;0;;;;;;;0;0;0;;;;
2022/10/16 09:36:48;;;;;;;0;0;;;;;;;0;0;0;;;;
2022/10/16 09:37:50;;;;;;;0;0;;;;;;;0;0;0;;;;
2022/10/16 09:38:53;;;;;;;0;0;;;;;;;0;0;0;;;;
2022/10/16 09:40:03;;;;;;;0;0;;;;;;;0;0;0;;;;
2022/10/16 09:41:05;;;;;;;0;0;;;;;;;0;0;0;;;;
2022/10/16 09:42:15;;;;;;;0;0;;;;;;;0;0;0;;;;
2022/10/16 09:43:18;;;;;;;0;0;;;;;;;0;0;0;;;;
2022/10/16 09:44:23;;;;;;;0;0;;;;;;;0;0;0;;;;
2022/10/16 09:45:28;;;;;;;0;0;;;;;;;0;0;0;;;;
2022/10/16 09:46:29;;;;;;;0;0;;;;;;;0;0;0;;;;
2022/10/16 09:47:31;;;;;;;0;0;;;;;;;0;0;0;;;;
2022/10/16 09:48:40;;;;;;;0;0;;;;;;;0;0;0;;;;
2022/10/16 09:49:47;;;;;;;0;0;;;;;;;0;0;0;;;;
2022/10/16 09:50:51;;;;;;;0;0;;;;;;;0;0;0;;;;
2022/10/16 09:51:56;;;;;;;0;0;;;;;;;0;0;0;;;;
2022/10/16 09:53:09;;;;;;;0;0;;;;;;;0;0;0;;;;
2022/10/16 09:54:12;;;;;;;0;0;;;;;;;0;0;0;;;;
2022/10/16 09:55:17;;;;;;;0;0;;;;;;;0;0;0;;;;
2022/10/16 09:56:18;;;;;;;0;0;;;;;;;0;0;0;;;;
2022/10/16 09:57:25;;;;;;;0;0;;;;;;;0;0;0;;;;
2022/10/16 09:58:26;;;;;;;0;0;;;;;;;0;0;0;;;;
2022/10/16 09:59:29;;;;;;;0;0;;;;;;;0;0;0;;;;
2022/10/16 10:00:32;;;;;;;0;0;;;;;;;0;0;0;;;;
2022/10/16 10:01:32;;;;;;;0;0;;;;;;;0;0;0;;;;
2022/10/16 10:02:38;;;;;;;0;0;;;;;;;0;0;0;;;;
2022/10/16 10:03:39;;;;;;;0;0;;;;;;;0;0;0;;;;
2022/10/16 10:04:41;;;;;;;0.5;0.4;;;;;;;46.32;54.27344;95565.61;;;;
2022/10/16 10:05:50;;;;;;;0.5;0.4;;;;;;;46.32;54.27344;95565.61;;;;
2022/10/16 10:06:52;;;;;;;0.5;0.4;;;;;;;46.32;54.27344;95565.61;;;;
2022/10/16 10:07:55;;;;;;;0.5;0.4;;;;;;;46.32;54.27344;95565.61;;;;
2022/10/16 10:08:58;;;;;;;0.5;0.4;;;;;;;46.32;54.27344;95565.61;;;;
2022/10/16 10:10:04;;;;;;;0.5;0.4;;;;;;;46.32;54.27344;95565.61;;;;
2022/10/16 10:11:19;;;;;;;0.5;0.4;;;;;;;46.32;54.27344;95565.61;;;;
2022/10/16 10:12:37;;;;;;;0.5;0.4;;;;;;;46.32;54.27344;95565.61;;;;
2022/10/16 10:13:38;;;;;;;0.5;0.4;;;;;;;46.32;54.27344;95565.61;;;;
2022/10/16 10:14:39;;;;;;;0.5;0.4;;;;;;;46.32;54.27344;95565.61;;;;
2022/10/16 10:15:44;;;;;;;0.65;0.5;;;;;;;46.83;54.37891;95559.78;;;;
2022/10/16 10:16:45;;;;;;;0.65;0.5;;;;;;;46.83;54.37891;95559.78;;;;
2022/10/16 10:17:47;;;;;;;0.65;0.5;;;;;;;46.83;54.37891;95559.78;;;;
2022/10/16 10:18:49;;;;;;;0.65;0.5;;;;;;;46.83;54.37891;95559.78;;;;
2022/10/16 10:19:58;;;;;;;0.65;0.5;;;;;;;46.83;54.37891;95559.78;;;;
2022/10/16 10:21:00;;;;;;;0.65;0.5;;;;;;;46.83;54.37891;95559.78;;;;
2022/10/16 10:22:03;;;;;;;0.65;0.5;;;;;;;46.83;54.37891;95559.78;;;;
2022/10/16 10:23:16;;;;;;;0.65;0.5;;;;;;;46.83;54.37891;95559.78;;;;
2022/10/16 10:24:21;;;;;;;0.65;0.5;;;;;;;46.83;54.37891;95559.78;;;;
2022/10/16 10:25:22;;;;;;;0.65;0.5;;;;;;;46.83;54.37891;95559.78;;;;
2022/10/16 10:26:48;;;;;;;0.7;0.7;;;;;;;47.08;54.59473;95562.36;;;;
2022/10/16 10:27:59;;;;;;;0.7;0.7;;;;;;;47.08;54.59473;95562.36;;;;
2022/10/16 10:29:14;;;;;;;0.7;0.7;;;;;;;47.08;54.59473;95562.36;;;;
2022/10/16 10:30:22;;;;;;;0.7;0.7;;;;;;;47.08;54.59473;95562.36;;;;
2022/10/16 10:31:27;;;;;;;0.7;0.7;;;;;;;47.08;54.59473;95562.36;;;;
2022/10/16 10:32:36;;;;;;;0.7;0.7;;;;;;;47.08;54.59473;95562.36;;;;
2022/10/16 10:33:47;;;;;;;0.7;0.7;;;;;;;47.08;54.59473;95562.36;;;;
2022/10/16 10:34:54;;;;;;;0.7;0.7;;;;;;;47.08;54.59473;95562.36;;;;
2022/10/16 10:36:07;;;;;;;0.7;0.7;;;;;;;47.08;54.59473;95562.36;;;;
2022/10/16 10:37:22;;;;;;;0.5;0.5;;;;;;;46.55;55.4834;95566.49;;;;
2022/10/16 10:38:42;;;;;;;0.5;0.5;;;;;;;46.55;55.4834;95566.49;;;;
2022/10/16 10:39:49;;;;;;;0.5;0.5;;;;;;;46.55;55.4834;95566.49;;;;
2022/10/16 10:41:00;;;;;;;0.5;0.5;;;;;;;46.55;55.4834;95566.49;;;;
2022/10/16 10:42:14;;;;;;;0.5;0.5;;;;;;;46.55;55.4834;95566.49;;;;
2022/10/16 10:43:25;;;;;;;0.5;0.5;;;;;;;46.55;55.4834;95566.49;;;;
2022/10/16 10:44:41;;;;;;;0.5;0.5;;;;;;;46.55;55.4834;95566.49;;;;
2022/10/16 10:45:57;;;;;;;0.5;0.5;;;;;;;46.55;55.4834;95566.49;;;;
2022/10/16 10:47:01;;;;;;;0.5;0.4;;;;;;;46.44;56.37305;95559.33;;;;
2022/10/16 10:48:15;;;;;;;0.5;0.4;;;;;;;46.44;56.37305;95559.33;;;;
2022/10/16 10:49:27;;;;;;;0.5;0.4;;;;;;;46.44;56.37305;95559.33;;;;
2022/10/16 10:50:41;;;;;;;0.5;0.4;;;;;;;46.44;56.37305;95559.33;;;;
2022/10/16 10:51:48;;;;;;;0.5;0.4;;;;;;;46.44;56.37305;95559.33;;;;
2022/10/16 10:53:01;;;;;;;0.5;0.4;;;;;;;46.44;56.37305;95559.33;;;;
2022/10/16 10:54:13;;;;;;;0.5;0.4;;;;;;;46.44;56.37305;95559.33;;;;
2022/10/16 10:55:20;;;;;;;0.5;0.4;;;;;;;46.44;56.37305;95559.33;;;;
2022/10/16 10:56:31;;;;;;;0.5;0.4;;;;;;;46.44;56.37305;95559.33;;;;
2022/10/16 10:57:44;;;;;;;0.4;0.4;;;;;;;46.08;58.22559;95558.15;;;;
2022/10/16 10:58:56;;;;;;;0.4;0.4;;;;;;;46.08;58.22559;95558.15;;;;
2022/10/16 11:00:43;;;;;;;0.4;0.4;;;;;;;46.08;58.22559;95558.15;;;;
2022/10/16 11:01:54;;;;;;;0.4;0.4;;;;;;;46.08;58.22559;95558.15;;;;
2022/10/16 11:02:59;;;;;;;0.4;0.4;;;;;;;46.08;58.22559;95558.15;;;;
2022/10/16 11:04:12;;;;;;;0.4;0.4;;;;;;;46.08;58.22559;95558.15;;;;
2022/10/16 11:09:16;;;;;;;0.7;0.4;;;;;;;45.37;59.78418;95553.25;;;;
2022/10/16 11:10:21;;;;;;;0.7;0.4;;;;;;;45.37;59.78418;95553.25;;;;
2022/10/16 11:11:25;;;;;;;0.7;0.4;;;;;;;45.37;59.78418;95553.25;;;;
2022/10/16 11:12:33;;;;;;;0.7;0.4;;;;;;;45.37;59.78418;95553.25;;;;
2022/10/16 11:13:37;;;;;;;0.7;0.4;;;;;;;45.37;59.78418;95553.25;;;;
2022/10/16 11:14:46;;;;;;;0.7;0.4;;;;;;;45.37;59.78418;95553.25;;;;
2022/10/16 11:15:54;;;;;;;0.7;0.4;;;;;;;45.37;59.78418;95553.25;;;;
2022/10/16 11:17:00;;;;;;;0.7;0.4;;;;;;;45.37;59.78418;95553.25;;;;
2022/10/16 11:18:08;;;;;;;0.7;0.4;;;;;;;45.37;59.78418;95553.25;;;;
2022/10/16 11:19:19;;;;;;;0.8;0.4;;;;;;;43.85;63.95313;95550.95;;;;
2022/10/16 11:20:31;;;;;;;0.8;0.4;;;;;;;43.85;63.95313;95550.95;;;;
2022/10/16 11:21:34;;;;;;;0.8;0.4;;;;;;;43.85;63.95313;95550.95;;;;
2022/10/16 11:22:43;;;;;;;0.8;0.4;;;;;;;43.85;63.95313;95550.95;;;;
2022/10/16 11:23:48;;;;;;;0.8;0.4;;;;;;;43.85;63.95313;95550.95;;;;
2022/10/16 11:24:57;;;;;;;0.8;0.4;;;;;;;43.85;63.95313;95550.95;;;;
2022/10/16 11:26:06;;;;;;;0.8;0.4;;;;;;;43.85;63.95313;95550.95;;;;
2022/10/16 11:27:14;;;;;;;0.8;0.4;;;;;;;43.85;63.95313;95550.95;;;;
2022/10/16 11:28:20;;;;;;;0.8;0.4;;;;;;;43.85;63.95313;95550.95;;;;
2022/10/16 11:29:27;;;;;;;0.8;0.4;;;;;;;43.85;63.95313;95550.95;;;;
2022/10/16 11:30:31;;;;;;;0.8;0.4;;;;;;;43.85;63.95313;95550.95;;;;
2022/10/16 11:31:39;;;;;;;0.8;0.4;;;;;;;43.85;63.95313;95550.95;;;;
2022/10/16 11:32:43;;;;;;;0.8;0.4;;;;;;;43.85;63.95313;95550.95;;;;
2022/10/16 11:33:59;;;;;;;0.8;0.4;;;;;;;43.85;63.95313;95550.95;;;;
2022/10/16 11:35:07;;;;;;;0.8;0.4;;;;;;;43.85;63.95313;95550.95;;;;
2022/10/16 11:36:17;;;;;;;0.8;0.4;;;;;;;43.85;63.95313;95550.95;;;;
2022/10/16 11:37:22;;;;;;;0.8;0.4;;;;;;;43.85;63.95313;95550.95;;;;
2022/10/16 11:38:31;;;;;;;0.8;0.4;;;;;;;43.85;63.95313;95550.95;;;;
2022/10/16 11:39:39;;;;;;;0.8;0.4;;;;;;;43.85;63.95313;95550.95;;;;
2022/10/16 11:40:41;;;;;;;0.8;0.4;;;;;;;43.85;63.95313;95550.95;;;;
2022/10/16 11:41:45;;;;;;;0.8;0.4;;;;;;;43.85;63.95313;95550.95;;;;
2022/10/16 11:42:49;;;;;;;0.8;0.4;;;;;;;43.85;63.95313;95550.95;;;;
2022/10/16 11:43:57;;;;;;;0.8;0.4;;;;;;;43.85;63.95313;95550.95;;;;
2022/10/16 11:45:14;;;;;;;0.8;0.4;;;;;;;43.85;63.95313;95550.95;;;;
2022/10/16 11:46:26;;;;;;;0.8;0.4;;;;;;;43.85;63.95313;95550.95;;;;
2022/10/16 11:47:27;;;;;;;0.8;0.4;;;;;;;43.85;63.95313;95550.95;;;;
2022/10/16 11:48:34;;;;;;;0.8;0.4;;;;;;;43.85;63.95313;95550.95;;;;
2022/10/16 11:49:41;;;;;;;0.8;0.4;;;;;;;43.85;63.95313;95550.95;;;;
2022/10/16 11:50:44;;;;;;;0.8;0.4;;;;;;;43.85;63.95313;95550.95;;;;
2022/10/16 11:51:50;;;;;;;0.5;0.2;;;;;;;39.42;77.87207;95551.45;;;;
2022/10/16 11:53:06;;;;;;;0.5;0.2;;;;;;;39.42;77.87207;95551.45;;;;
2022/10/16 11:54:16;;;;;;;0.5;0.2;;;;;;;39.42;77.87207;95551.45;;;;
2022/10/16 11:55:25;;;;;;;0.5;0.2;;;;;;;39.42;77.87207;95551.45;;;;
2022/10/16 11:56:32;;;;;;;0.5;0.2;;;;;;;39.42;77.87207;95551.45;;;;
2022/10/16 11:57:39;;;;;;;0.5;0.2;;;;;;;39.42;77.87207;95551.45;;;;
2022/10/16 11:58:45;;;;;;;0.5;0.2;;;;;;;39.42;77.87207;95551.45;;;;
2022/10/16 11:59:55;;;;;;;0.5;0.2;;;;;;;39.42;77.87207;95551.45;;;;
2022/10/16 12:01:00;;;;;;;0.5;0.2;;;;;;;39.42;77.87207;95551.45;;;;
2022/10/16 12:02:15;;;;;;;0.3;0.3;;;;;;;39.87;77.41016;95546.69;;;;
2022/10/16 12:03:33;;;;;;;0.3;0.3;;;;;;;39.87;77.41016;95546.69;;;;
2022/10/16 12:04:45;;;;;;;0.3;0.3;;;;;;;39.87;77.41016;95546.69;;;;
2022/10/16 12:05:50;;;;;;;0.3;0.3;;;;;;;39.87;77.41016;95546.69;;;;
2022/10/16 12:07:00;;;;;;;0.3;0.3;;;;;;;39.87;77.41016;95546.69;;;;
2022/10/16 12:08:05;;;;;;;0.3;0.3;;;;;;;39.87;77.41016;95546.69;;;;
2022/10/16 12:09:11;;;;;;;0.3;0.3;;;;;;;39.87;77.41016;95546.69;;;;
2022/10/16 12:10:19;;;;;;;0.3;0.3;;;;;;;39.87;77.41016;95546.69;;;;
2022/10/16 12:11:23;;;;;;;0.3;0.3;;;;;;;39.87;77.41016;95546.69;;;;
2022/10/16 12:12:32;;;;;;;0.3;0.3;;;;;;;39.87;77.41016;95546.69;;;;
2022/10/16 12:13:39;;;;;;;0.3;0.3;;;;;;;39.87;77.41016;95546.69;;;;
2022/10/16 12:14:41;;;;;;;0.3;0.3;;;;;;;39.87;77.41016;95546.69;;;;
2022/10/16 12:15:42;;;;;;;0.3;0.3;;;;;;;39.87;77.41016;95546.69;;;;
2022/10/16 12:16:42;;;;;;;0.3;0.3;;;;;;;39.87;77.41016;95546.69;;;;
2022/10/16 12:17:52;;;;;;;0.3;0.3;;;;;;;39.87;77.41016;95546.69;;;;
2022/10/16 12:18:54;;;;;;;0.3;0.3;;;;;;;39.87;77.41016;95546.69;;;;
2022/10/16 12:20:10;;;;;;;0.3;0.3;;;;;;;39.87;77.41016;95546.69;;;;
2022/10/16 12:21:23;;;;;;;0.3;0.3;;;;;;;39.87;77.41016;95546.69;;;;
2022/10/16 12:22:30;;;;;;;0.3;0.3;;;;;;;39.87;77.41016;95546.69;;;;
2022/10/16 12:23:32;;;;;;;0.4;0.3;;;;;;;41.77;72.16602;95547.27;;;;
2022/10/16 12:24:36;;;;;;;0.4;0.3;;;;;;;41.77;72.16602;95547.27;;;;
2022/10/16 12:25:46;;;;;;;0.4;0.3;;;;;;;41.77;72.16602;95547.27;;;;
2022/10/16 12:26:54;;;;;;;0.4;0.3;;;;;;;41.77;72.16602;95547.27;;;;
2022/10/16 12:27:55;;;;;;;0.4;0.3;;;;;;;41.77;72.16602;95547.27;;;;
2022/10/16 12:29:01;;;;;;;0.4;0.3;;;;;;;41.77;72.16602;95547.27;;;;
2022/10/16 12:30:19;;;;;;;0.4;0.3;;;;;;;41.77;72.16602;95547.27;;;;
2022/10/16 12:31:24;;;;;;;0.4;0.3;;;;;;;41.77;72.16602;95547.27;;;;
2022/10/16 12:32:39;;;;;;;0.4;0.3;;;;;;;41.77;72.16602;95547.27;;;;
2022/10/16 12:33:40;;;;;;;0.3;0.3;;;;;;;41.72;70.39063;95546.89;;;;
2022/10/16 12:34:52;;;;;;;0.3;0.3;;;;;;;41.72;70.39063;95546.89;;;;
2022/10/16 12:35:52;;;;;;;0.3;0.3;;;;;;;41.72;70.39063;95546.89;;;;
2022/10/16 12:36:54;;;;;;;0.3;0.3;;;;;;;41.72;70.39063;95546.89;;;;
2022/10/16 12:38:07;;;;;;;0.3;0.3;;;;;;;41.72;70.39063;95546.89;;;;
2022/10/16 12:39:15;;;;;;;0.3;0.3;;;;;;;41.72;70.39063;95546.89;;;;
2022/10/16 12:40:22;;;;;;;0.3;0.3;;;;;;;41.72;70.39063;95546.89;;;;
2022/10/16 12:41:28;;;;;;;0.3;0.3;;;;;;;41.72;70.39063;95546.89;;;;
2022/10/16 12:42:31;;;;;;;0.3;0.3;;;;;;;41.72;70.39063;95546.89;;;;
2022/10/16 12:43:34;;;;;;;0.3;0.3;;;;;;;41.72;70.39063;95546.89;;;;
2022/10/16 12:44:39;;;;;;;0.55;0.4;;;;;;;41.87;70.47266;95543.65;;;;
2022/10/16 12:45:40;;;;;;;0.55;0.4;;;;;;;41.87;70.47266;95543.65;;;;
2022/10/16 12:46:40;;;;;;;0.55;0.4;;;;;;;41.87;70.47266;95543.65;;;;
2022/10/16 12:47:41;;;;;;;0.55;0.4;;;;;;;41.87;70.47266;95543.65;;;;
2022/10/16 12:48:50;;;;;;;0.55;0.4;;;;;;;41.87;70.47266;95543.65;;;;
2022/10/16 12:49:51;;;;;;;0.55;0.4;;;;;;;41.87;70.47266;95543.65;;;;
2022/10/16 12:50:53;;;;;;;0.55;0.4;;;;;;;41.87;70.47266;95543.65;;;;
2022/10/16 12:51:54;;;;;;;0.55;0.4;;;;;;;41.87;70.47266;95543.65;;;;
2022/10/16 12:52:55;;;;;;;0.55;0.4;;;;;;;41.87;70.47266;95543.65;;;;
2022/10/16 12:53:55;;;;;;;0.55;0.4;;;;;;;41.87;70.47266;95543.65;;;;
2022/10/16 12:55:00;;;;;;;3;0.7;;;;;;;41.73;69.34277;95535.38;;;;
2022/10/16 12:56:01;;;;;;;3;0.7;;;;;;;41.73;69.34277;95535.38;;;;
2022/10/16 12:57:09;;;;;;;3;0.7;;;;;;;41.73;69.34277;95535.38;;;;
2022/10/16 12:58:32;;;;;;;3;0.7;;;;;;;41.73;69.34277;95535.38;;;;
2022/10/16 12:59:49;;;;;;;3;0.7;;;;;;;41.73;69.34277;95535.38;;;;
2022/10/16 13:00:58;;;;;;;3;0.7;;;;;;;41.73;69.34277;95535.38;;;;
2022/10/16 13:02:07;;;;;;;3;0.7;;;;;;;41.73;69.34277;95535.38;;;;
2022/10/16 13:03:44;;;;;;;3;0.7;;;;;;;41.73;69.34277;95535.38;;;;
2022/10/16 13:05:06;;;;;;;3;0.7;;;;;;;41.73;69.34277;95535.38;;;;
2022/10/16 13:06:26;;;;;;;3;0.7;;;;;;;41.73;69.34277;95535.38;;;;
2022/10/16 13:07:35;;;;;;;3;0.7;;;;;;;41.73;69.34277;95535.38;;;;
2022/10/16 13:08:52;;;;;;;3;0.7;;;;;;;41.73;69.34277;95535.38;;;;
2022/10/16 13:11:11;;;;;;;3;0.7;;;;;;;41.73;69.34277;95535.38;;;;
2022/10/16 13:12:21;;;;;;;3;0.7;;;;;;;41.73;69.34277;95535.38;;;;
2022/10/16 13:13:40;;;;;;;3;0.7;;;;;;;41.73;69.34277;95535.38;;;;
2022/10/16 13:14:57;;;;;;;3;0.7;;;;;;;41.73;69.34277;95535.38;;;;
2022/10/16 13:16:07;;;;;;;3;0.7;;;;;;;41.73;69.34277;95535.38;;;;
2022/10/16 13:17:19;;;;;;;0.7;0.6;;;;;;;41.08;69.84375;95532.05;;;;
2022/10/16 13:18:30;;;;;;;0.7;0.6;;;;;;;41.08;69.84375;95532.05;;;;
2022/10/16 13:19:44;;;;;;;0.7;0.6;;;;;;;41.08;69.84375;95532.05;;;;
2022/10/16 13:20:51;;;;;;;0.7;0.6;;;;;;;41.08;69.84375;95532.05;;;;
2022/10/16 13:22:03;;;;;;;0.7;0.6;;;;;;;41.08;69.84375;95532.05;;;;
2022/10/16 13:23:14;;;;;;;0.7;0.6;;;;;;;41.08;69.84375;95532.05;;;;
2022/10/16 13:24:20;;;;;;;0.7;0.6;;;;;;;41.08;69.84375;95532.05;;;;
2022/10/16 13:25:36;;;;;;;0.7;0.6;;;;;;;41.08;69.84375;95532.05;;;;
2022/10/16 13:26:49;;;;;;;0.7;0.6;;;;;;;41.08;69.84375;95532.05;;;;
2022/10/16 13:27:57;;;;;;;1.35;0.65;;;;;;;40.64;69.42188;95539.81;;;;
2022/10/16 13:29:00;;;;;;;1.35;0.65;;;;;;;40.64;69.42188;95539.81;;;;
2022/10/16 13:30:02;;;;;;;1.35;0.65;;;;;;;40.64;69.42188;95539.81;;;;
2022/10/16 13:31:12;;;;;;;1.35;0.65;;;;;;;40.64;69.42188;95539.81;;;;
2022/10/16 13:32:19;;;;;;;1.35;0.65;;;;;;;40.64;69.42188;95539.81;;;;
2022/10/16 13:33:20;;;;;;;1.35;0.65;;;;;;;40.64;69.42188;95539.81;;;;
2022/10/16 13:34:29;;;;;;;1.35;0.65;;;;;;;40.64;69.42188;95539.81;;;;
2022/10/16 13:35:30;;;;;;;1.35;0.65;;;;;;;40.64;69.42188;95539.81;;;;
2022/10/16 13:36:33;;;;;;;1.35;0.65;;;;;;;40.64;69.42188;95539.81;;;;
2022/10/16 13:37:35;;;;;;;1.35;0.65;;;;;;;40.64;69.42188;95539.81;;;;
2022/10/16 13:38:36;;;;;;;1.4;0.75;;;;;;;39.89;70.4502;95544.33;;;;
2022/10/16 13:39:36;;;;;;;1.4;0.75;;;;;;;39.89;70.4502;95544.33;;;;
2022/10/16 13:40:37;;;;;;;1.4;0.75;;;;;;;39.89;70.4502;95544.33;;;;
2022/10/16 13:41:48;;;;;;;1.4;0.75;;;;;;;39.89;70.4502;95544.33;;;;
2022/10/16 13:43:01;;;;;;;1.4;0.75;;;;;;;39.89;70.4502;95544.33;;;;
2022/10/16 13:44:02;;;;;;;1.4;0.75;;;;;;;39.89;70.4502;95544.33;;;;
2022/10/16 13:45:04;;;;;;;1.4;0.75;;;;;;;39.89;70.4502;95544.33;;;;
2022/10/16 13:46:05;;;;;;;1.4;0.75;;;;;;;39.89;70.4502;95544.33;;;;
2022/10/16 13:47:11;;;;;;;1.4;0.75;;;;;;;39.89;70.4502;95544.33;;;;
2022/10/16 13:48:17;;;;;;;1.4;0.75;;;;;;;39.89;70.4502;95544.33;;;;
2022/10/16 13:49:20;;;;;;;0.7;0.7;;;;;;;39.06;70.9209;95537.23;;;;
2022/10/16 13:50:20;;;;;;;0.7;0.7;;;;;;;39.06;70.9209;95537.23;;;;
2022/10/16 13:51:21;;;;;;;0.7;0.7;;;;;;;39.06;70.9209;95537.23;;;;
2022/10/16 13:52:22;;;;;;;0.7;0.7;;;;;;;39.06;70.9209;95537.23;;;;
2022/10/16 13:53:22;;;;;;;0.7;0.7;;;;;;;39.06;70.9209;95537.23;;;;
2022/10/16 13:54:23;;;;;;;0.7;0.7;;;;;;;39.06;70.9209;95537.23;;;;
2022/10/16 13:55:24;;;;;;;0.7;0.7;;;;;;;39.06;70.9209;95537.23;;;;
2022/10/16 13:56:25;;;;;;;0.7;0.7;;;;;;;39.06;70.9209;95537.23;;;;
2022/10/16 13:57:28;;;;;;;0.7;0.7;;;;;;;39.06;70.9209;95537.23;;;;
2022/10/16 13:58:29;;;;;;;0.7;0.7;;;;;;;39.06;70.9209;95537.23;;;;
2022/10/16 13:59:30;;;;;;;1.3;0.7;;;;;;;37.76;71.3418;95553.11;;;;
2022/10/16 14:00:35;;;;;;;1.3;0.7;;;;;;;37.76;71.3418;95553.11;;;;
2022/10/16 14:01:36;;;;;;;1.3;0.7;;;;;;;37.76;71.3418;95553.11;;;;
2022/10/16 14:02:42;;;;;;;1.3;0.7;;;;;;;37.76;71.3418;95553.11;;;;
2022/10/16 14:03:43;;;;;;;1.3;0.7;;;;;;;37.76;71.3418;95553.11;;;;
2022/10/16 14:04:45;;;;;;;1.3;0.7;;;;;;;37.76;71.3418;95553.11;;;;
2022/10/16 14:05:47;;;;;;;1.3;0.7;;;;;;;37.76;71.3418;95553.11;;;;
2022/10/16 14:06:50;;;;;;;1.3;0.7;;;;;;;37.76;71.3418;95553.11;;;;
2022/10/16 14:07:51;;;;;;;1.3;0.7;;;;;;;37.76;71.3418;95553.11;;;;
2022/10/16 14:08:53;;;;;;;1.3;0.7;;;;;;;37.76;71.3418;95553.11;;;;
2022/10/16 14:10:00;;;;;;;0.7;0.6;;;;;;;35.43;74.75098;95561.6;;;;
2022/10/16 14:11:05;;;;;;;0.7;0.6;;;;;;;35.43;74.75098;95561.6;;;;
2022/10/16 14:12:05;;;;;;;0.7;0.6;;;;;;;35.43;74.75098;95561.6;;;;
2022/10/16 14:13:11;;;;;;;0.7;0.6;;;;;;;35.43;74.75098;95561.6;;;;
2022/10/16 14:14:16;;;;;;;0.7;0.6;;;;;;;35.43;74.75098;95561.6;;;;
2022/10/16 14:15:18;;;;;;;0.7;0.6;;;;;;;35.43;74.75098;95561.6;;;;
2022/10/16 14:16:19;;;;;;;0.7;0.6;;;;;;;35.43;74.75098;95561.6;;;;
2022/10/16 14:17:22;;;;;;;0.7;0.6;;;;;;;35.43;74.75098;95561.6;;;;
2022/10/16 14:18:26;;;;;;;0.7;0.6;;;;;;;35.43;74.75098;95561.6;;;;
2022/10/16 14:19:28;;;;;;;0.7;0.6;;;;;;;35.43;74.75098;95561.6;;;;
2022/10/16 14:20:30;;;;;;;0.7;0.6;;;;;;;35.43;74.75098;95561.6;;;;
2022/10/16 14:21:33;;;;;;;0.7;0.6;;;;;;;35.43;74.75098;95561.6;;;;
2022/10/16 14:22:34;;;;;;;0.7;0.6;;;;;;;35.43;74.75098;95561.6;;;;
2022/10/16 14:23:37;;;;;;;0.7;0.6;;;;;;;35.43;74.75098;95561.6;;;;
2022/10/16 14:24:40;;;;;;;0.7;0.6;;;;;;;35.43;74.75098;95561.6;;;;
2022/10/16 14:25:41;;;;;;;0.7;0.6;;;;;;;35.43;74.75098;95561.6;;;;
2022/10/16 14:26:41;;;;;;;0.7;0.6;;;;;;;35.43;74.75098;95561.6;;;;
2022/10/16 14:27:43;;;;;;;0.7;0.6;;;;;;;35.43;74.75098;95561.6;;;;
2022/10/16 14:28:44;;;;;;;0.7;0.6;;;;;;;35.43;74.75098;95561.6;;;;
2022/10/16 14:29:46;;;;;;;0.7;0.6;;;;;;;35.43;74.75098;95561.6;;;;
2022/10/16 14:30:47;;;;;;;0.7;0.6;;;;;;;35.43;74.75098;95561.6;;;;
2022/10/16 14:31:53;;;;;;;2.05;0.8;;;;;;;30.08;82.43262;95570.28;;;;
2022/10/16 14:32:56;;;;;;;2.05;0.8;;;;;;;30.08;82.43262;95570.28;;;;
2022/10/16 14:33:59;;;;;;;2.05;0.8;;;;;;;30.08;82.43262;95570.28;;;;
2022/10/16 14:35:00;;;;;;;2.05;0.8;;;;;;;30.08;82.43262;95570.28;;;;
2022/10/16 14:36:00;;;;;;;2.05;0.8;;;;;;;30.08;82.43262;95570.28;;;;
2022/10/16 14:37:06;;;;;;;2.05;0.8;;;;;;;30.08;82.43262;95570.28;;;;
2022/10/16 14:38:15;;;;;;;2.05;0.8;;;;;;;30.08;82.43262;95570.28;;;;
2022/10/16 14:39:19;;;;;;;2.05;0.8;;;;;;;30.08;82.43262;95570.28;;;;
2022/10/16 14:40:22;;;;;;;2.05;0.8;;;;;;;30.08;82.43262;95570.28;;;;
2022/10/16 14:41:25;;;;;;;2.05;0.8;;;;;;;30.08;82.43262;95570.28;;;;
2022/10/16 14:42:26;;;;;;;1.05;0.5;;;;;;;28.07;85.52051;95570.42;;;;
2022/10/16 14:43:28;;;;;;;1.05;0.5;;;;;;;28.07;85.52051;95570.42;;;;
2022/10/16 14:44:33;;;;;;;1.05;0.5;;;;;;;28.07;85.52051;95570.42;;;;
2022/10/16 14:45:34;;;;;;;1.05;0.5;;;;;;;28.07;85.52051;95570.42;;;;
2022/10/16 14:46:35;;;;;;;1.05;0.5;;;;;;;28.07;85.52051;95570.42;;;;
2022/10/16 14:47:38;;;;;;;1.05;0.5;;;;;;;28.07;85.52051;95570.42;;;;
2022/10/16 14:48:49;;;;;;;1.05;0.5;;;;;;;28.07;85.52051;95570.42;;;;
2022/10/16 14:49:51;;;;;;;1.05;0.5;;;;;;;28.07;85.52051;95570.42;;;;
2022/10/16 14:50:51;;;;;;;1.05;0.5;;;;;;;28.07;85.52051;95570.42;;;;
2022/10/16 14:51:52;;;;;;;1.05;0.5;;;;;;;28.07;85.52051;95570.42;;;;
2022/10/16 14:52:53;;;;;;;1.55;0.7;;;;;;;26.44;87.60547;95576.03;;;;
2022/10/16 14:53:53;;;;;;;1.55;0.7;;;;;;;26.44;87.60547;95576.03;;;;
2022/10/16 14:54:56;;;;;;;1.55;0.7;;;;;;;26.44;87.60547;95576.03;;;;
2022/10/16 14:55:56;;;;;;;1.55;0.7;;;;;;;26.44;87.60547;95576.03;;;;
2022/10/16 14:56:57;;;;;;;1.55;0.7;;;;;;;26.44;87.60547;95576.03;;;;
2022/10/16 14:57:58;;;;;;;1.55;0.7;;;;;;;26.44;87.60547;95576.03;;;;
2022/10/16 14:58:59;;;;;;;1.55;0.7;;;;;;;26.44;87.60547;95576.03;;;;
2022/10/16 15:00:00;;;;;;;1.55;0.7;;;;;;;26.44;87.60547;95576.03;;;;
2022/10/16 15:01:01;;;;;;;1.55;0.7;;;;;;;26.44;87.60547;95576.03;;;;
2022/10/16 15:02:02;;;;;;;1.55;0.7;;;;;;;26.44;87.60547;95576.03;;;;
2022/10/16 15:03:20;;;;;;;0.5;0.5;;;;;;;25.09;89.51563;95585.72;;;;
2022/10/16 15:04:20;;;;;;;0.5;0.5;;;;;;;25.09;89.51563;95585.72;;;;
2022/10/16 15:05:22;;;;;;;0.5;0.5;;;;;;;25.09;89.51563;95585.72;;;;
2022/10/16 15:06:24;;;;;;;0.5;0.5;;;;;;;25.09;89.51563;95585.72;;;;
2022/10/16 15:07:25;;;;;;;0.5;0.5;;;;;;;25.09;89.51563;95585.72;;;;
2022/10/16 15:08:25;;;;;;;0.5;0.5;;;;;;;25.09;89.51563;95585.72;;;;
2022/10/16 15:09:26;;;;;;;0.5;0.5;;;;;;;25.09;89.51563;95585.72;;;;
2022/10/16 15:10:26;;;;;;;0.5;0.5;;;;;;;25.09;89.51563;95585.72;;;;
2022/10/16 15:11:29;;;;;;;0.5;0.5;;;;;;;25.09;89.51563;95585.72;;;;
2022/10/16 15:12:32;;;;;;;0.5;0.5;;;;;;;25.09;89.51563;95585.72;;;;
2022/10/16 15:13:33;;;;;;;0.5;0.5;;;;;;;25.09;89.51563;95585.72;;;;
2022/10/16 15:14:33;;;;;;;1.1;0.7;;;;;;;23.98;91.21582;95594.69;;;;
2022/10/16 15:15:34;;;;;;;1.1;0.7;;;;;;;23.98;91.21582;95594.69;;;;
2022/10/16 15:16:37;;;;;;;1.1;0.7;;;;;;;23.98;91.21582;95594.69;;;;
2022/10/16 15:17:37;;;;;;;1.1;0.7;;;;;;;23.98;91.21582;95594.69;;;;
2022/10/16 15:18:38;;;;;;;1.1;0.7;;;;;;;23.98;91.21582;95594.69;;;;
2022/10/16 15:19:39;;;;;;;1.1;0.7;;;;;;;23.98;91.21582;95594.69;;;;
2022/10/16 15:20:39;;;;;;;1.1;0.7;;;;;;;23.98;91.21582;95594.69;;;;
2022/10/16 15:21:40;;;;;;;1.1;0.7;;;;;;;23.98;91.21582;95594.69;;;;
2022/10/16 15:22:41;;;;;;;1.1;0.7;;;;;;;23.98;91.21582;95594.69;;;;
2022/10/16 15:23:41;;;;;;;1.1;0.7;;;;;;;23.98;91.21582;95594.69;;;;
2022/10/16 15:24:42;;;;;;;0.75;0.5;;;;;;;23.17;92.93652;95604.86;;;;